Stinnett, TX (79083)

3:50 PM CDT on September 28, 2016 (GMT -0500)
Hutchinson County | | Change Station

Elev 3054 ft 35.69 °N, 101.39 °W | Updated 59 minutes ago

Clear
Clear
88 °F
Feels Like 88 °F
N
9
Wind Variable Wind from ESE

Today
High -- | Low -- °F
--% Chance of Precip.
Yesterday
High -- | Low -- °F
Precip. -- in
Pressure 30.06 in
Visibility 10.0 miles
Clouds Clear
Dew Point 29 °F
Humidity 12%
Rainfall 0.00 in
Snow Depth Not available.
7:38 AM 7:32 PM
Waning Crescent, 4% visible
METAR KBGD 281951Z AUTO 12008KT 10SM CLR 31/M02 A3017 RMK AO2 SLP177 T03111017 TSNO
Pressure 30.06 in
Visibility 10.0 miles
Clouds Clear
Dew Point 29 °F
Humidity 12%
Rainfall 0.00 in
Snow Depth Not available.
7:38 AM 7:32 PM
Waning Crescent, 4% visible
METAR KBGD 281951Z AUTO 12008KT 10SM CLR 31/M02 A3017 RMK AO2 SLP177 T03111017 TSNO

10-Day Weather Forecast

Almanac

Astronomy

Sep. 28, 2016 Rise Set
Actual Time
Civil Twilight
Nautical Twilight
Astronomical Twilight
Moon
Length of Visible Light
Length of Day
Tomorrow will be .
, % of the Moon is Illuminated

Today's Extremes

State Highs State Lows

Community

WunderPhotos

Upload Photos

1,942,325 photos uploaded!

WunderBlog® & News

Nearby

Air Quality

  Air Quality AQ Index Pollutant
Not available.

Snow Depth

Station Depth Elevation

Earthquake Activity

City Distance Mag. Time & Date
Minimum magnitude displayed is 2.5.

Coastal Water Temperatures

Place Temperature

Stations

Nearby Weather Stations

Station Location Temp. Windchill Dew Point Humidity Wind Precip. Elev Updated Type
                   

Watches & Warnings

There are currently no watches in effect.